createdAt,value
2022-08-23T00:00:25.957Z,0.8
2022-08-23T00:01:35.592Z,1.1
2022-08-23T00:02:45.386Z,0.8
2022-08-23T00:03:53.954Z,0.7
2022-08-23T00:05:08.507Z,0.9
2022-08-23T00:06:14.300Z,1
2022-08-23T00:07:23.958Z,0.8
2022-08-23T00:08:32.740Z,1.1
2022-08-23T00:09:41.407Z,0.6
2022-08-23T00:10:51.055Z,0.8
2022-08-23T00:11:59.716Z,0.7
2022-08-23T00:13:08.374Z,0.9
2022-08-23T00:14:18.050Z,0.9
2022-08-23T00:15:24.711Z,0.8
2022-08-23T00:16:34.363Z,1
2022-08-23T00:17:42.024Z,0.9
2022-08-23T00:18:51.685Z,1
2022-08-23T00:20:00.348Z,0.9
2022-08-23T00:21:08.006Z,1
2022-08-23T00:22:17.744Z,1.1
2022-08-23T00:23:25.295Z,1.1
2022-08-23T00:24:38.045Z,0.8
2022-08-23T00:25:43.659Z,0.6
2022-08-23T00:26:52.319Z,0.8
2022-08-23T00:28:02.077Z,0.8
2022-08-23T00:29:10.621Z,0.9
2022-08-23T00:30:18.269Z,1
2022-08-23T00:31:27.948Z,1
2022-08-23T00:32:36.611Z,1
2022-08-23T00:33:45.262Z,1
2022-08-23T00:34:54.917Z,1.1
2022-08-23T00:36:02.570Z,1.2
2022-08-23T00:37:12.251Z,1.1
2022-08-23T00:38:33.519Z,1.2
2022-08-23T00:39:30.515Z,1.4
2022-08-23T00:40:40.175Z,1.7
2022-08-23T00:41:47.822Z,1.8
2022-08-23T00:42:57.525Z,1.5
2022-08-23T00:44:07.171Z,1.7
2022-08-23T00:45:14.834Z,1.6
2022-08-23T00:46:24.497Z,1.7
2022-08-23T00:47:34.174Z,1.6
2022-08-23T00:48:41.855Z,1.8
2022-08-23T00:49:51.537Z,1.6
2022-08-23T00:51:00.206Z,1.8
2022-08-23T00:52:08.907Z,1.3
2022-08-23T00:53:18.557Z,0.8
2022-08-23T00:54:26.379Z,1
2022-08-23T00:55:36.052Z,0.8
2022-08-23T00:56:44.714Z,0.9
2022-08-23T00:57:53.356Z,0.9
2022-08-23T00:59:03.023Z,1.1
2022-08-23T01:00:11.684Z,0.7
2022-08-23T01:01:21.354Z,1
2022-08-23T01:02:30.998Z,0.8
2022-08-23T01:03:40.655Z,1
2022-08-23T01:04:51.313Z,1
2022-08-23T01:05:59.989Z,0.8
2022-08-23T01:07:07.644Z,0.8
2022-08-23T01:08:17.298Z,0.8
2022-08-23T01:09:26.953Z,0.8
2022-08-23T01:10:35.655Z,0.6
2022-08-23T01:11:45.352Z,0.9
2022-08-23T01:12:53.027Z,0.8
2022-08-23T01:14:02.688Z,0.6
2022-08-23T01:15:11.323Z,0.9
2022-08-23T01:16:19.998Z,0.7
2022-08-23T01:17:29.692Z,0.8
2022-08-23T01:18:37.340Z,0.9
2022-08-23T01:19:44.987Z,0.9
2022-08-23T01:20:54.643Z,1.4
2022-08-23T01:22:02.287Z,0.8
2022-08-23T01:23:11.970Z,0.8
2022-08-23T01:24:32.782Z,0.8
2022-08-23T01:25:31.248Z,1
2022-08-23T01:26:40.919Z,1.1
2022-08-23T01:27:49.573Z,0.9
2022-08-23T01:28:58.270Z,0.9
2022-08-23T01:30:07.950Z,0.7
2022-08-23T01:31:15.604Z,0.8
2022-08-23T01:32:25.282Z,0.9
2022-08-23T01:33:35.949Z,0.9
2022-08-23T01:34:45.915Z,0.9
2022-08-23T01:35:56.252Z,0.7
2022-08-23T01:37:04.926Z,1.1
2022-08-23T01:38:13.569Z,1.2
2022-08-23T01:39:23.220Z,1.1
2022-08-23T01:40:31.947Z,1.3
2022-08-23T01:41:41.663Z,0.9
2022-08-23T01:42:50.308Z,0.8
2022-08-23T01:43:57.976Z,1.5
2022-08-23T01:45:06.605Z,0.8
2022-08-23T01:46:15.286Z,1
2022-08-23T01:47:23.945Z,0.9
2022-08-23T01:48:33.608Z,1
2022-08-23T01:49:41.259Z,1.4
2022-08-23T01:50:50.920Z,1.2
2022-08-23T01:51:59.578Z,1.1
2022-08-23T01:53:07.220Z,1
2022-08-23T01:54:16.887Z,1.6
2022-08-23T01:55:24.538Z,1.3
2022-08-23T01:56:38.517Z,1.3
2022-08-23T01:57:45.428Z,1.3
2022-08-23T01:58:52.606Z,1.3
2022-08-23T02:00:02.257Z,1.3
2022-08-23T02:01:10.916Z,1.5
2022-08-23T02:02:18.591Z,1.1
2022-08-23T02:03:28.280Z,1
2022-08-23T02:04:36.947Z,0.7
2022-08-23T02:05:45.693Z,1.1
2022-08-23T02:06:55.290Z,1.2
2022-08-23T02:08:02.924Z,1.1
2022-08-23T02:09:17.133Z,1.1
2022-08-23T02:10:22.238Z,0.9
2022-08-23T02:11:29.919Z,1.2
2022-08-23T02:12:39.589Z,1.2
2022-08-23T02:13:47.237Z,1.2
2022-08-23T02:14:57.008Z,1.4
2022-08-23T02:16:04.716Z,1.1
2022-08-23T02:17:14.363Z,1.2
2022-08-23T02:18:24.013Z,1.2
2022-08-23T02:19:33.685Z,0.9
2022-08-23T02:20:43.358Z,1.1
2022-08-23T02:21:53.021Z,1
2022-08-23T02:23:01.856Z,0.9
2022-08-23T02:24:11.347Z,1.3
2022-08-23T02:25:18.980Z,1.2
2022-08-23T02:26:30.719Z,1.1
2022-08-23T02:27:38.311Z,1.4
2022-08-23T02:28:47.974Z,1.3
2022-08-23T02:29:57.638Z,1.2
2022-08-23T02:31:06.287Z,1.1
2022-08-23T02:32:14.961Z,0.9
2022-08-23T02:33:24.615Z,1
2022-08-23T02:34:51.275Z,1.3
2022-08-23T02:35:57.116Z,0.9
2022-08-23T02:37:05.888Z,1
2022-08-23T02:38:15.688Z,1
2022-08-23T02:39:25.471Z,0.9
2022-08-23T02:40:34.225Z,1.1
2022-08-23T02:41:41.982Z,1.2
2022-08-23T02:42:51.744Z,1.2
2022-08-23T02:43:59.510Z,1.3
2022-08-23T02:45:09.272Z,0.9
2022-08-23T02:46:19.036Z,1.3
2022-08-23T02:47:26.796Z,1.1
2022-08-23T02:48:36.558Z,1.4
2022-08-23T02:49:44.378Z,1.3
2022-08-23T02:50:52.132Z,1.1
2022-08-23T02:52:01.897Z,1.1
2022-08-23T02:53:09.663Z,1.5
2022-08-23T02:54:19.438Z,1.1
2022-08-23T02:55:29.222Z,1.3
2022-08-23T02:56:36.995Z,1.2
2022-08-23T02:57:46.755Z,1.2
2022-08-23T02:58:56.551Z,1.4
2022-08-23T03:00:05.310Z,1.1
2022-08-23T03:01:15.221Z,1.1
2022-08-23T03:02:25.050Z,1.3
2022-08-23T03:03:34.784Z,1.3
2022-08-23T03:04:44.543Z,1.2
2022-08-23T03:05:52.337Z,1.3
2022-08-23T03:07:01.176Z,1.2
2022-08-23T03:08:09.950Z,1.5
2022-08-23T03:09:18.697Z,1.2
2022-08-23T03:10:28.455Z,1.2
2022-08-23T03:11:36.201Z,1.2
2022-08-23T03:12:45.985Z,1
2022-08-23T03:13:55.756Z,1.2
2022-08-23T03:15:03.523Z,1
2022-08-23T03:16:14.285Z,0.9
2022-08-23T03:17:23.073Z,1.2
2022-08-23T03:18:31.875Z,1.1
2022-08-23T03:19:40.648Z,1
2022-08-23T03:20:48.421Z,0.9
2022-08-23T03:21:57.180Z,1
2022-08-23T03:23:06.961Z,0.8
2022-08-23T03:24:14.752Z,1.1
2022-08-23T03:25:24.526Z,1.4
2022-08-23T03:26:33.275Z,1.2
2022-08-23T03:27:44.657Z,1.2
2022-08-23T03:28:53.803Z,1.1
2022-08-23T03:30:02.591Z,1.2
2022-08-23T03:31:12.320Z,1
2022-08-23T03:32:21.958Z,1.1
2022-08-23T03:33:30.595Z,1.3
2022-08-23T03:34:40.246Z,1.1
2022-08-23T03:35:48.910Z,1.2
2022-08-23T03:36:57.573Z,1.3
2022-08-23T03:38:06.247Z,1.1
2022-08-23T03:39:12.921Z,1
2022-08-23T03:40:22.633Z,1.2
2022-08-23T03:41:32.246Z,1.2
2022-08-23T03:42:41.921Z,1.3
2022-08-23T03:43:51.593Z,1.2
2022-08-23T03:45:02.165Z,1.2
2022-08-23T03:46:09.884Z,1
2022-08-23T03:47:19.568Z,1.3
2022-08-23T03:48:28.214Z,1
2022-08-23T03:49:36.893Z,1.1
2022-08-23T03:50:46.559Z,1.3
2022-08-23T03:51:54.202Z,1.1
2022-08-23T03:53:03.932Z,1.2
2022-08-23T03:54:12.581Z,1.2
2022-08-23T03:55:21.241Z,1.3
2022-08-23T03:56:30.923Z,1.3
2022-08-23T03:57:38.576Z,1
2022-08-23T03:58:47.255Z,1.3
2022-08-23T03:59:56.921Z,1.1
2022-08-23T04:01:05.575Z,1.1
2022-08-23T04:02:15.302Z,1.3
2022-08-23T04:03:23.909Z,1.4
2022-08-23T04:04:32.697Z,1.1
2022-08-23T04:05:42.377Z,1.2
2022-08-23T04:06:51.057Z,1.4
2022-08-23T04:07:59.855Z,1.1
2022-08-23T04:09:09.360Z,1
2022-08-23T04:10:18.066Z,1.2
2022-08-23T04:11:27.724Z,1
2022-08-23T04:12:36.387Z,1.2
2022-08-23T04:13:46.058Z,1.1
2022-08-23T04:14:55.723Z,1.1
2022-08-23T04:16:03.374Z,0.9
2022-08-23T04:17:12.052Z,1.1
2022-08-23T04:18:18.705Z,1.3
2022-08-23T04:19:28.357Z,1.3
2022-08-23T04:20:39.042Z,1.3
2022-08-23T04:21:46.739Z,1.1
2022-08-23T04:22:56.414Z,0.9
2022-08-23T04:24:05.079Z,1.2
2022-08-23T04:25:32.920Z,1
2022-08-23T04:26:29.738Z,1.1
2022-08-23T04:27:34.068Z,1.3
2022-08-23T04:28:42.728Z,1.1
2022-08-23T04:29:52.394Z,1.2
2022-08-23T04:31:02.061Z,1.3
2022-08-23T04:32:12.683Z,1.4
2022-08-23T04:33:22.322Z,1.4
2022-08-23T04:34:29.983Z,1.2
2022-08-23T04:35:38.656Z,1.1
2022-08-23T04:36:51.898Z,1.5
2022-08-23T04:37:56.941Z,1.5
2022-08-23T04:39:06.647Z,1
2022-08-23T04:40:15.376Z,1.2
2022-08-23T04:41:24.974Z,1.5
2022-08-23T04:42:32.625Z,1.4
2022-08-23T04:43:41.283Z,1.2
2022-08-23T04:44:50.949Z,0.9
2022-08-23T04:45:58.596Z,1.2
2022-08-23T04:47:07.259Z,1.1
2022-08-23T04:48:16.916Z,1.2
2022-08-23T04:49:26.586Z,1.3
2022-08-23T04:50:37.254Z,1.4
2022-08-23T04:51:51.903Z,1.4
2022-08-23T04:52:56.539Z,1.5
2022-08-23T04:54:05.192Z,1.3
2022-08-23T04:55:12.844Z,1.3
2022-08-23T04:56:21.551Z,1.2
2022-08-23T04:57:31.244Z,1.3
2022-08-23T04:58:38.890Z,1.3
2022-08-23T04:59:48.556Z,1.2
2022-08-23T05:00:58.255Z,0.9
2022-08-23T05:02:06.880Z,1.5
2022-08-23T05:03:16.546Z,1.4
2022-08-23T05:04:24.197Z,1.2
2022-08-23T05:05:32.849Z,1.2
2022-08-23T05:06:42.494Z,1.2
2022-08-23T05:07:50.226Z,1.2
2022-08-23T05:08:59.893Z,1.1
2022-08-23T05:10:08.538Z,1.2
2022-08-23T05:11:17.207Z,1.1
2022-08-23T05:12:26.853Z,1.3
2022-08-23T05:13:34.844Z,1.3
2022-08-23T05:14:44.310Z,1.5
2022-08-23T05:15:54.831Z,1.2
2022-08-23T05:17:03.470Z,1.2
2022-08-23T05:18:13.128Z,1.1
2022-08-23T05:19:21.823Z,1.2
2022-08-23T05:20:29.470Z,1.4
2022-08-23T05:21:39.131Z,1.2
2022-08-23T05:22:46.783Z,1.3
2022-08-23T05:23:56.402Z,1.3
2022-08-23T05:25:06.094Z,1.1
2022-08-23T05:26:14.752Z,0.9
2022-08-23T05:27:24.416Z,1
2022-08-23T05:28:33.074Z,1.4
2022-08-23T05:29:42.746Z,1.2
2022-08-23T05:30:56.257Z,1
2022-08-23T05:32:03.049Z,1
2022-08-23T05:33:12.711Z,1.3
2022-08-23T05:34:22.726Z,1.1
2022-08-23T05:35:31.026Z,1.5
2022-08-23T05:36:47.561Z,1.3
2022-08-23T05:37:50.338Z,1.4
2022-08-23T05:38:58.009Z,1.4
2022-08-23T05:40:07.748Z,1.4
2022-08-23T05:41:15.323Z,1.4
2022-08-23T05:42:25.015Z,1.3
2022-08-23T05:43:34.670Z,1.5
2022-08-23T05:44:42.325Z,1.6
2022-08-23T05:45:52.991Z,1.9
2022-08-23T05:47:02.638Z,1.9
2022-08-23T05:48:10.299Z,1.3
2022-08-23T05:49:20.518Z,0.9
2022-08-23T05:50:29.593Z,0.9
2022-08-23T05:51:39.253Z,1.3
2022-08-23T05:52:51.022Z,1.1
2022-08-23T05:53:59.568Z,0.7
2022-08-23T05:55:09.230Z,0.9
2022-08-23T05:56:17.888Z,1.1
2022-08-23T05:57:26.547Z,0.9
2022-08-23T05:58:36.234Z,1
2022-08-23T05:59:43.931Z,0.8
2022-08-23T06:00:53.615Z,0.9
2022-08-23T06:02:03.246Z,1
2022-08-23T06:03:12.925Z,1
2022-08-23T06:04:22.584Z,1.4
2022-08-23T06:05:31.375Z,1.3
2022-08-23T06:06:40.025Z,0.9
2022-08-23T06:07:49.697Z,1
2022-08-23T06:08:57.397Z,1.2
2022-08-23T06:10:07.065Z,1
2022-08-23T06:11:15.850Z,0.9
2022-08-23T06:12:25.512Z,0.9
2022-08-23T06:13:35.192Z,0.8
2022-08-23T06:14:42.836Z,1
2022-08-23T06:15:52.541Z,0.9
2022-08-23T06:17:02.215Z,0.9
2022-08-23T06:18:09.872Z,0.9
2022-08-23T06:19:19.531Z,0.8
2022-08-23T06:20:27.296Z,0.9
2022-08-23T06:21:36.869Z,0.9
2022-08-23T06:22:47.550Z,0.7
2022-08-23T06:23:55.217Z,0.9
2022-08-23T06:25:07.121Z,0.8
2022-08-23T06:26:13.552Z,0.7
2022-08-23T06:27:23.216Z,1
2022-08-23T06:28:32.909Z,1.6
2022-08-23T06:29:42.561Z,1.1
2022-08-23T06:30:52.263Z,1.1
2022-08-23T06:32:01.863Z,1.1
2022-08-23T06:33:10.510Z,1.1
2022-08-23T06:34:20.197Z,1
2022-08-23T06:35:37.639Z,1
2022-08-23T06:36:39.510Z,1.1
2022-08-23T06:37:49.172Z,0.9
2022-08-23T06:38:56.881Z,0.9
2022-08-23T06:40:05.599Z,0.9
2022-08-23T06:41:14.220Z,0.6
2022-08-23T06:42:39.182Z,1.1
2022-08-23T06:43:34.540Z,1
2022-08-23T06:44:43.202Z,0.7
2022-08-23T06:45:55.023Z,1.1
2022-08-23T06:47:03.577Z,0.9
2022-08-23T06:48:11.973Z,0.8
2022-08-23T06:49:21.897Z,1.1
2022-08-23T06:50:32.136Z,0.9
2022-08-23T06:51:41.224Z,1
2022-08-23T06:52:50.880Z,0.7
2022-08-23T06:54:02.962Z,0.9
2022-08-23T06:55:13.587Z,1.2
2022-08-23T06:56:20.851Z,0.9
2022-08-23T06:57:28.527Z,1.2
2022-08-23T06:58:38.182Z,0.8
2022-08-23T06:59:47.851Z,0.9
2022-08-23T07:00:57.753Z,0.7
2022-08-23T07:02:07.293Z,0.9
2022-08-23T07:03:15.822Z,0.8
2022-08-23T07:04:24.487Z,0.6
2022-08-23T07:05:34.145Z,1
2022-08-23T07:06:42.871Z,1.1
2022-08-23T07:07:52.536Z,0.6
2022-08-23T07:09:02.216Z,0.6
2022-08-23T07:10:10.911Z,0.7
2022-08-23T07:11:20.591Z,0.5
2022-08-23T07:12:30.263Z,0.6
2022-08-23T07:13:40.076Z,0.5
2022-08-23T07:14:49.866Z,0.6
2022-08-23T07:15:57.595Z,0.7
2022-08-23T07:17:06.200Z,0.5
2022-08-23T07:18:15.858Z,0.4
2022-08-23T07:19:24.294Z,0.6
2022-08-23T07:20:34.241Z,0.3
2022-08-23T07:21:42.911Z,0.4
2022-08-23T07:22:50.600Z,0.7
2022-08-23T07:24:00.264Z,0.3
2022-08-23T07:25:09.953Z,0.4
2022-08-23T07:26:17.658Z,0.5
2022-08-23T07:27:27.335Z,0.4
2022-08-23T07:28:36.176Z,0.2
2022-08-23T07:29:45.909Z,0.3
2022-08-23T07:30:54.562Z,0.4
2022-08-23T07:32:02.379Z,0.4
2022-08-23T07:33:11.987Z,0.3
2022-08-23T07:34:20.657Z,0.4
2022-08-23T07:35:30.296Z,0.3
2022-08-23T07:36:39.982Z,0.6
2022-08-23T07:37:47.615Z,0.3
2022-08-23T07:38:57.306Z,0.4
2022-08-23T07:40:05.974Z,0.3
2022-08-23T07:41:13.610Z,0.4
2022-08-23T07:42:24.286Z,0.3
2022-08-23T07:43:33.512Z,0.5
2022-08-23T07:44:43.564Z,0.4
2022-08-23T07:45:53.211Z,0.3
2022-08-23T07:47:02.860Z,0.3
2022-08-23T07:48:14.280Z,0.3
2022-08-23T07:49:22.181Z,0.3
2022-08-23T07:50:31.826Z,0.2
2022-08-23T07:51:41.496Z,0.3
2022-08-23T07:52:51.157Z,0.4
2022-08-23T07:54:00.819Z,0.3
2022-08-23T07:55:10.515Z,0.5
2022-08-23T07:56:18.266Z,0.5
2022-08-23T07:57:27.951Z,0.2
2022-08-23T07:58:36.625Z,0.5
2022-08-23T07:59:43.308Z,0.3
2022-08-23T08:00:53.012Z,0.3
2022-08-23T08:02:00.725Z,0.5
2022-08-23T08:03:09.357Z,0.3
2022-08-23T08:04:18.967Z,0.2
2022-08-23T08:05:27.638Z,0.2
2022-08-23T08:06:37.345Z,0.3
2022-08-23T08:07:45.005Z,0.2
2022-08-23T08:08:54.669Z,0.4
2022-08-23T08:10:04.331Z,0.3
2022-08-23T08:11:13.004Z,0.2
2022-08-23T08:12:23.188Z,0.2
2022-08-23T08:13:30.337Z,0.2
2022-08-23T08:14:38.981Z,0.3
2022-08-23T08:15:48.669Z,0.3
2022-08-23T08:16:56.296Z,0.2
2022-08-23T08:18:06.079Z,0.2
2022-08-23T08:19:15.724Z,0.3
2022-08-23T08:20:24.371Z,0.1
2022-08-23T08:21:34.061Z,0.3
2022-08-23T08:22:46.780Z,0.2
2022-08-23T08:23:53.381Z,0.2
2022-08-23T08:25:03.084Z,0.2
2022-08-23T08:26:10.701Z,0.5
2022-08-23T08:27:20.387Z,0.4
2022-08-23T08:28:30.057Z,0.2
2022-08-23T08:29:37.721Z,0.2
2022-08-23T08:30:47.387Z,0.2
2022-08-23T08:31:57.017Z,0.2
2022-08-23T08:33:05.690Z,0.2
2022-08-23T08:34:15.341Z,0.2
2022-08-23T08:35:24.036Z,0.2
2022-08-23T08:36:33.708Z,0.2
2022-08-23T08:37:43.363Z,0.4
2022-08-23T08:38:55.484Z,0.3
2022-08-23T08:40:03.699Z,0.2
2022-08-23T08:41:11.318Z,0.3
2022-08-23T08:42:20.981Z,0.2
2022-08-23T08:43:30.684Z,0.3
2022-08-23T08:44:39.348Z,0.2
2022-08-23T08:45:52.076Z,0.3
2022-08-23T08:46:59.717Z,0.2
2022-08-23T08:48:13.294Z,0.3
2022-08-23T08:49:20.015Z,0.4
2022-08-23T08:50:27.659Z,0.3
2022-08-23T08:51:36.331Z,0.3
2022-08-23T08:52:46.066Z,0.2
2022-08-23T08:53:53.752Z,0.2
2022-08-23T08:55:03.400Z,0.1
2022-08-23T08:56:12.040Z,0.3
2022-08-23T08:57:25.533Z,0.2
2022-08-23T08:58:33.352Z,0.2
2022-08-23T08:59:42.027Z,0.3
2022-08-23T09:00:55.237Z,0.2
2022-08-23T09:02:01.358Z,0.2
2022-08-23T09:03:10.051Z,0.4
2022-08-23T09:04:19.687Z,0.2
2022-08-23T09:05:28.332Z,0.2
2022-08-23T09:06:36.987Z,0.1
2022-08-23T09:07:46.642Z,0.4
2022-08-23T09:08:55.290Z,0.3
2022-08-23T09:10:04.982Z,0.4
2022-08-23T09:11:14.692Z,0.3
2022-08-23T09:12:23.321Z,0.2
2022-08-23T09:13:32.974Z,0.2
2022-08-23T09:14:41.613Z,0.3
2022-08-23T09:15:49.299Z,0.4
2022-08-23T09:16:58.956Z,0.2
2022-08-23T09:18:07.605Z,0.2
2022-08-23T09:19:17.256Z,0.3
2022-08-23T09:20:29.905Z,0.3
2022-08-23T09:21:36.779Z,0.2
2022-08-23T09:22:46.409Z,0.2
2022-08-23T09:24:00.682Z,0.3
2022-08-23T09:25:05.679Z,0.2
2022-08-23T09:26:16.327Z,0.4
2022-08-23T09:27:24.011Z,0.4
2022-08-23T09:28:32.679Z,0.3
2022-08-23T09:29:42.333Z,0.2
2022-08-23T09:30:51.037Z,0.2
2022-08-23T09:32:00.648Z,0.2
2022-08-23T09:33:09.300Z,0.4
2022-08-23T09:34:17.953Z,0.1
2022-08-23T09:35:27.637Z,0.2
2022-08-23T09:36:36.274Z,0.2
2022-08-23T09:37:44.957Z,0.4
2022-08-23T09:38:54.867Z,0.4
2022-08-23T09:40:03.532Z,0.4
2022-08-23T09:41:13.161Z,0.4
2022-08-23T09:42:21.823Z,0.5
2022-08-23T09:43:30.484Z,0.2
2022-08-23T09:44:40.162Z,0.3
2022-08-23T09:45:48.826Z,0.2
2022-08-23T09:46:56.475Z,0.3
2022-08-23T09:48:06.125Z,0.3
2022-08-23T09:49:15.791Z,0.2
2022-08-23T09:50:25.513Z,0.2
2022-08-23T09:51:35.077Z,0.3
2022-08-23T09:52:43.854Z,0.3
2022-08-23T09:53:54.503Z,0.1
2022-08-23T09:55:03.179Z,0.1
2022-08-23T09:56:11.853Z,0.3
2022-08-23T09:57:21.511Z,0.4
2022-08-23T09:58:30.181Z,0.2
2022-08-23T09:59:39.854Z,0.1
2022-08-23T10:00:48.522Z,0.3
2022-08-23T10:01:56.261Z,0.2
2022-08-23T10:03:05.875Z,0.1
2022-08-23T10:04:14.593Z,0.1
2022-08-23T10:05:24.203Z,0.2
2022-08-23T10:06:33.847Z,0.1
2022-08-23T10:07:43.503Z,0.2
2022-08-23T10:08:53.171Z,0.1
2022-08-23T10:10:01.834Z,0.2
2022-08-23T10:11:11.467Z,0.1
2022-08-23T10:12:20.118Z,0.2
2022-08-23T10:13:30.904Z,0.2
2022-08-23T10:14:40.541Z,0.2
2022-08-23T10:15:49.283Z,0.3
2022-08-23T10:16:58.870Z,0.2
2022-08-23T10:18:08.527Z,0.2
2022-08-23T10:19:16.222Z,0.1
2022-08-23T10:20:27.567Z,0.2
2022-08-23T10:21:34.545Z,0.1
2022-08-23T10:22:44.189Z,0.2
2022-08-23T10:23:53.860Z,0.2
2022-08-23T10:25:01.644Z,0.1
2022-08-23T10:26:10.306Z,0.2
2022-08-23T10:27:19.970Z,0.2
2022-08-23T10:28:27.637Z,0.2
2022-08-23T10:29:37.348Z,0.2
2022-08-23T10:30:44.981Z,0.1
2022-08-23T10:31:54.755Z,0.1
2022-08-23T10:33:03.283Z,0.2
2022-08-23T10:34:10.957Z,0.1
2022-08-23T10:35:19.629Z,0.4
2022-08-23T10:36:29.312Z,0.2
2022-08-23T10:37:38.965Z,0.3
2022-08-23T10:38:48.617Z,0.2
2022-08-23T10:40:03.069Z,0.2
2022-08-23T10:41:07.877Z,0.4
2022-08-23T10:42:17.671Z,0.1
2022-08-23T10:43:27.316Z,0.2
2022-08-23T10:44:35.968Z,0.2
2022-08-23T10:45:45.614Z,0.2
2022-08-23T10:46:53.331Z,0.1
2022-08-23T10:48:03.123Z,0.3
2022-08-23T10:49:12.671Z,0.1
2022-08-23T10:50:20.332Z,0.2
2022-08-23T10:51:31.374Z,0.1
2022-08-23T10:52:39.618Z,0.4
2022-08-23T10:53:49.367Z,0.3
2022-08-23T10:54:59.044Z,0.1
2022-08-23T10:56:07.723Z,0.1
2022-08-23T10:57:17.372Z,0.3
2022-08-23T10:58:26.019Z,0.1
2022-08-23T10:59:34.709Z,0.4
2022-08-23T11:00:43.365Z,0.5
2022-08-23T11:01:52.086Z,0.2
2022-08-23T11:03:00.758Z,0.3
2022-08-23T11:04:10.380Z,0.3
2022-08-23T11:05:19.098Z,0.2
2022-08-23T11:06:27.781Z,0.2
2022-08-23T11:07:36.491Z,0.2
2022-08-23T11:08:47.776Z,0.5
2022-08-23T11:09:56.830Z,0.2
2022-08-23T11:11:05.497Z,0.1
2022-08-23T11:12:14.141Z,0.2
2022-08-23T11:13:23.787Z,0.2
2022-08-23T11:14:31.460Z,0.3
2022-08-23T11:15:41.471Z,0.3
2022-08-23T11:16:50.825Z,0.2
2022-08-23T11:18:01.661Z,0.1
2022-08-23T11:19:11.113Z,0.1
2022-08-23T11:20:20.800Z,0.2
2022-08-23T11:21:29.463Z,0.2
2022-08-23T11:22:39.154Z,0.1
2022-08-23T11:23:46.827Z,0.2
2022-08-23T11:24:56.497Z,0.1
2022-08-23T11:26:05.184Z,0.3
2022-08-23T11:27:13.842Z,0.1
2022-08-23T11:28:24.642Z,0.2
2022-08-23T11:29:33.292Z,0.2
2022-08-23T11:30:43.011Z,0.1
2022-08-23T11:31:52.630Z,0.2
2022-08-23T11:33:00.291Z,0.1
2022-08-23T11:34:09.962Z,0.1
2022-08-23T11:35:19.161Z,0.1
2022-08-23T11:36:26.258Z,0.3
2022-08-23T11:37:35.923Z,0.1
2022-08-23T11:38:45.592Z,0.2
2022-08-23T11:39:54.307Z,0.1
2022-08-23T11:41:03.933Z,0
2022-08-23T11:42:12.615Z,0.2
2022-08-23T11:43:22.281Z,0
2022-08-23T11:44:30.968Z,0
2022-08-23T11:45:40.624Z,0.2
2022-08-23T11:46:50.395Z,0.3
2022-08-23T11:47:59.097Z,0.1
2022-08-23T11:49:07.750Z,0.2
2022-08-23T11:50:17.447Z,0.2
2022-08-23T11:51:25.160Z,0.2
2022-08-23T11:52:34.831Z,0.3
2022-08-23T11:53:43.504Z,0.1
2022-08-23T11:54:52.159Z,0.2
2022-08-23T11:56:01.863Z,0.2
2022-08-23T11:57:09.540Z,0.1
2022-08-23T11:58:18.231Z,0.2
2022-08-23T11:59:27.929Z,0.1
2022-08-23T12:00:35.640Z,0.2
2022-08-23T12:01:45.287Z,0.1
2022-08-23T12:02:54.133Z,0.2
2022-08-23T12:04:03.810Z,0.1
2022-08-23T12:05:13.373Z,0.1
2022-08-23T12:06:22.014Z,0.4
2022-08-23T12:07:31.690Z,0.4
2022-08-23T12:08:39.404Z,0.2
2022-08-23T12:09:49.069Z,0.4
2022-08-23T12:10:58.727Z,0.2
2022-08-23T12:12:06.624Z,0
2022-08-23T12:13:16.058Z,0.1
2022-08-23T12:14:25.731Z,0.1
2022-08-23T12:15:33.443Z,0.1
2022-08-23T12:16:44.094Z,0
2022-08-23T12:17:54.696Z,0.1
2022-08-23T12:19:03.372Z,0.1
2022-08-23T12:20:16.572Z,0.1
2022-08-23T12:21:22.700Z,0.1
2022-08-23T12:22:31.371Z,0.1
2022-08-23T12:23:39.036Z,0
2022-08-23T12:24:47.692Z,0.1
2022-08-23T12:25:57.385Z,0.1
2022-08-23T12:27:05.029Z,0.1
2022-08-23T12:28:13.715Z,0.1
2022-08-23T12:29:22.397Z,0.4
2022-08-23T12:30:31.096Z,0.1
2022-08-23T12:31:40.887Z,0.1
2022-08-23T12:32:49.472Z,0.1
2022-08-23T12:33:58.126Z,0.1
2022-08-23T12:35:07.793Z,0
2022-08-23T12:36:17.426Z,0.1
2022-08-23T12:37:26.138Z,0.2
2022-08-23T12:38:35.793Z,0.2
2022-08-23T12:39:43.544Z,0.1
2022-08-23T12:40:54.398Z,0
2022-08-23T12:42:01.802Z,0.2
2022-08-23T12:43:09.480Z,0.1
2022-08-23T12:44:20.140Z,0.1
2022-08-23T12:45:26.824Z,0.2
2022-08-23T12:46:35.617Z,0.1
2022-08-23T12:47:45.177Z,0
2022-08-23T12:48:52.964Z,0
2022-08-23T12:50:02.660Z,0.1
2022-08-23T12:51:11.277Z,0.2
2022-08-23T12:52:19.312Z,0.3
2022-08-23T12:53:28.597Z,0.1
2022-08-23T12:54:36.332Z,0.2
2022-08-23T12:55:45.025Z,0.2
2022-08-23T12:56:54.678Z,0.1
2022-08-23T12:58:02.320Z,0.2
2022-08-23T12:59:11.980Z,0.2
2022-08-23T13:00:21.646Z,0.1
2022-08-23T13:01:31.357Z,0.3
2022-08-23T13:02:41.036Z,0.1
2022-08-23T13:03:49.628Z,0
2022-08-23T13:04:58.292Z,0.1
2022-08-23T13:06:07.958Z,0.1
2022-08-23T13:07:16.585Z,0.2
2022-08-23T13:08:27.439Z,0.5
2022-08-23T13:09:35.867Z,0.1
2022-08-23T13:10:43.520Z,0.2
2022-08-23T13:11:53.211Z,0.1
2022-08-23T13:13:02.086Z,0.1
2022-08-23T13:14:10.544Z,0.2
2022-08-23T13:15:19.246Z,0.3
2022-08-23T13:16:28.992Z,0.1
2022-08-23T13:17:38.601Z,0.2
2022-08-23T13:18:48.267Z,0.1
2022-08-23T13:19:55.921Z,0.1
2022-08-23T13:21:05.587Z,0.2
2022-08-23T13:22:13.260Z,0.2
2022-08-23T13:23:20.917Z,0.2
2022-08-23T13:24:38.252Z,0.3
2022-08-23T13:25:40.175Z,0
2022-08-23T13:26:49.821Z,0.1
2022-08-23T13:27:58.469Z,0.1
2022-08-23T13:29:07.152Z,0.1
2022-08-23T13:30:16.827Z,0.1
2022-08-23T13:31:26.545Z,0.1
2022-08-23T13:32:35.140Z,0.1
2022-08-23T13:33:44.801Z,0.2
2022-08-23T13:34:53.566Z,0.1
2022-08-23T13:36:03.332Z,0
2022-08-23T13:37:13.005Z,0.3
2022-08-23T13:38:22.635Z,0.2
2022-08-23T13:39:32.296Z,0
2022-08-23T13:40:39.957Z,0.1
2022-08-23T13:41:48.608Z,0.1
2022-08-23T13:42:58.260Z,0.1
2022-08-23T13:44:06.927Z,0.1
2022-08-23T13:45:16.591Z,0
2022-08-23T13:46:26.638Z,0.1
2022-08-23T13:47:37.696Z,0.1
2022-08-23T13:48:46.552Z,0.1
2022-08-23T13:49:54.206Z,0
2022-08-23T13:51:02.885Z,0.1
2022-08-23T13:52:41.516Z,0.1
2022-08-23T13:53:22.394Z,0.1
2022-08-23T13:54:32.012Z,0.2
2022-08-23T13:55:40.683Z,0.2
2022-08-23T13:56:48.361Z,0
2022-08-23T13:57:58.095Z,0.3
2022-08-23T13:59:05.738Z,0.2
2022-08-23T14:00:19.266Z,0.3
2022-08-23T14:01:26.051Z,0.2
2022-08-23T14:02:34.690Z,0
2022-08-23T14:03:43.414Z,0.2
2022-08-23T14:04:52.145Z,0
2022-08-23T14:06:01.687Z,0.2
2022-08-23T14:07:10.332Z,0.1
2022-08-23T14:08:17.977Z,0.1
2022-08-23T14:09:27.675Z,0.1
2022-08-23T14:10:35.316Z,0.1
2022-08-23T14:11:43.971Z,0
2022-08-23T14:12:53.618Z,0.2
2022-08-23T14:14:01.267Z,0.1
2022-08-23T14:15:10.998Z,0.2
2022-08-23T14:16:39.674Z,0.1
2022-08-23T14:17:30.970Z,0.2
2022-08-23T14:19:14.919Z,0
2022-08-23T14:21:00.261Z,0.2
2022-08-23T14:22:09.924Z,0.1
2022-08-23T14:23:18.582Z,0.1
2022-08-23T14:24:28.259Z,0.2
2022-08-23T14:25:37.920Z,0.2
2022-08-23T14:26:51.458Z,0.2
2022-08-23T14:27:58.226Z,0.2
2022-08-23T14:29:07.879Z,0
2022-08-23T14:30:17.519Z,0.2
2022-08-23T14:31:27.221Z,0.4
2022-08-23T14:32:35.898Z,0.2
2022-08-23T14:33:45.552Z,0.3
2022-08-23T14:34:54.238Z,0.1
2022-08-23T14:36:01.927Z,0.3
2022-08-23T14:38:20.535Z,0.1
2022-08-23T14:39:29.022Z,0.2
2022-08-23T14:40:38.680Z,0.1
2022-08-23T14:41:50.338Z,0.2
2022-08-23T14:42:57.035Z,0.1
2022-08-23T14:44:05.656Z,0.1
2022-08-23T14:45:13.325Z,0.1
2022-08-23T14:46:23.017Z,0.1
2022-08-23T14:47:30.625Z,0.1
2022-08-23T14:48:39.346Z,0.3
2022-08-23T14:49:52.070Z,0
2022-08-23T14:50:57.665Z,0.2
2022-08-23T14:52:07.349Z,0.2
2022-08-23T14:53:15.000Z,0
2022-08-23T14:54:22.654Z,0.1
2022-08-23T14:55:32.337Z,0.2
2022-08-23T14:56:42.181Z,0.1
2022-08-23T14:57:52.017Z,0
2022-08-23T14:59:01.669Z,0.1
2022-08-23T15:00:09.323Z,0.1
2022-08-23T15:01:19.126Z,0.1
2022-08-23T15:02:26.651Z,0.2
2022-08-23T15:03:34.379Z,0
2022-08-23T15:04:43.987Z,0.1
2022-08-23T15:05:51.656Z,0.1
2022-08-23T15:07:17.024Z,0
2022-08-23T15:08:11.975Z,0.1
2022-08-23T15:09:21.673Z,0.1
2022-08-23T15:13:02.254Z,0.2
2022-08-23T15:14:02.442Z,0.2
2022-08-23T15:15:10.829Z,0.2
2022-08-23T15:16:19.654Z,0.1
2022-08-23T15:17:31.593Z,0.1
2022-08-23T15:18:38.969Z,0.1
2022-08-23T15:19:48.618Z,0.2
2022-08-23T15:20:58.253Z,0.1
2022-08-23T15:22:18.961Z,0.1
2022-08-23T15:23:18.592Z,0.1
2022-08-23T15:24:26.302Z,0.2
2022-08-23T15:25:34.956Z,0.2
2022-08-23T15:26:44.609Z,0.1
2022-08-23T15:27:53.277Z,0.2
2022-08-23T15:29:02.929Z,0.2
2022-08-23T15:30:11.605Z,0.1
2022-08-23T15:31:19.253Z,0.4
2022-08-23T15:32:28.958Z,0.4
2022-08-23T15:33:37.604Z,0.1
2022-08-23T15:34:47.242Z,0.3
2022-08-23T15:35:57.032Z,0.2
2022-08-23T15:37:05.689Z,0.2
2022-08-23T15:38:14.374Z,0.3
2022-08-23T15:39:23.968Z,0.2
2022-08-23T15:40:32.757Z,0.2
2022-08-23T15:41:42.469Z,0.1
2022-08-23T15:42:51.139Z,0.1
2022-08-23T15:43:59.793Z,0.1
2022-08-23T15:45:09.460Z,0.2
2022-08-23T15:46:17.190Z,0.1
2022-08-23T15:47:26.837Z,0.2
2022-08-23T15:48:35.485Z,0.1
2022-08-23T15:49:44.151Z,0.2
2022-08-23T15:50:53.797Z,0.3
2022-08-23T15:52:02.444Z,0.3
2022-08-23T15:53:11.127Z,0.3
2022-08-23T15:54:20.792Z,0.1
2022-08-23T15:55:28.442Z,0.1
2022-08-23T15:56:38.131Z,0.1
2022-08-23T15:57:47.791Z,0
2022-08-23T15:58:55.483Z,0.1
2022-08-23T16:00:04.150Z,0.2
2022-08-23T16:01:12.856Z,0.2
2022-08-23T16:02:22.512Z,0.1